Time;durP1;ratioP1;P1;durP2;ratioP2;P2;SDS_P1;SDS_P2;PMS_P1;PMS_P2;Temp;Humidity;BMP_temperature;BMP_pressure;BME280_temperature;BME280_humidity;BME280_pressure;Samples;Min_cycle;Max_cycle;Signal;HPM_P1;HPM_P2
2021/04/21 00:02:18;;;;;;;26.30;17.77;;;;;;;8.36;75.28;96093.00;5106122;28;20544;-86
2021/04/21 00:04:46;;;;;;;25.30;16.23;;;;;;;8.34;75.54;96098.91;5113131;28;20516;-85
2021/04/21 00:07:14;;;;;;;24.70;16.53;;;;;;;8.35;75.82;96094.25;5113112;28;20439;-85
2021/04/21 00:09:41;;;;;;;25.90;16.90;;;;;;;8.32;75.88;96092.63;5101018;28;20442;-85
2021/04/21 00:12:08;;;;;;;22.60;16.73;;;;;;;8.28;76.02;96098.34;5096329;28;20746;-85
2021/04/21 00:14:34;;;;;;;25.60;17.40;;;;;;;8.21;76.48;96093.63;5095741;28;20520;-85
2021/04/21 00:17:03;;;;;;;26.57;17.00;;;;;;;8.14;77.06;96088.22;5096766;28;20908;-86
2021/04/21 00:19:31;;;;;;;26.60;15.97;;;;;;;8.06;77.18;96088.88;5099504;28;20452;-85
2021/04/21 00:21:59;;;;;;;25.40;16.30;;;;;;;8.06;77.18;96080.09;5099892;28;20783;-85
2021/04/21 00:24:29;;;;;;;24.90;16.30;;;;;;;8.04;77.33;96072.59;5099120;28;20468;-86
2021/04/21 00:26:57;;;;;;;22.70;16.07;;;;;;;8.03;77.49;96081.16;5099003;28;20406;-85
2021/04/21 00:29:24;;;;;;;24.30;16.23;;;;;;;8.02;77.39;96080.44;5111043;28;20488;-85
2021/04/21 00:31:51;;;;;;;24.07;16.87;;;;;;;7.96;77.55;96076.47;5109654;28;20460;-85
2021/04/21 00:34:19;;;;;;;24.30;17.07;;;;;;;7.94;77.95;96074.31;5108700;28;20543;-85
2021/04/21 00:36:49;;;;;;;26.53;16.53;;;;;;;7.89;78.36;96075.16;5105238;28;20436;-85
2021/04/21 00:39:17;;;;;;;32.07;17.87;;;;;;;7.88;78.11;96071.06;5100194;28;20867;-85
2021/04/21 00:41:51;;;;;;;26.03;17.70;;;;;;;7.81;78.50;96066.34;5098327;28;20407;-86
2021/04/21 00:47:42;;;;;;;27.80;17.13;;;;;;;7.74;79.40;96066.31;5098871;28;20371;-85
2021/04/21 00:50:15;;;;;;;27.47;16.80;;;;;;;7.74;78.79;96064.34;5098791;28;20409;-85
2021/04/21 00:52:48;;;;;;;23.50;16.17;;;;;;;7.73;79.25;96060.22;5099685;28;20443;-85
2021/04/21 00:55:19;;;;;;;24.10;17.47;;;;;;;7.71;79.61;96062.72;5099165;28;20438;-85
2021/04/21 00:57:54;;;;;;;25.27;17.57;;;;;;;7.72;79.08;96066.13;5099262;28;20845;-85
2021/04/21 01:00:23;;;;;;;27.10;17.50;;;;;;;7.68;79.51;96057.66;5099669;28;20520;-85
2021/04/21 01:02:59;;;;;;;24.10;16.77;;;;;;;7.68;79.94;96065.72;5098904;28;20489;-85
2021/04/21 01:05:30;;;;;;;26.47;17.80;;;;;;;7.61;79.96;96048.34;5098743;28;20481;-85
2021/04/21 01:07:59;;;;;;;26.70;17.37;;;;;;;7.61;79.71;96042.97;5098469;28;20436;-85
2021/04/21 01:10:29;;;;;;;25.03;17.30;;;;;;;7.61;80.06;96047.63;5098650;28;20456;-86
2021/04/21 01:12:56;;;;;;;26.33;19.00;;;;;;;7.61;80.31;96045.66;5098501;28;20463;-86
2021/04/21 01:15:24;;;;;;;22.87;16.60;;;;;;;7.59;80.31;96044.72;5100058;28;20506;-85
2021/04/21 01:17:52;;;;;;;21.57;16.67;;;;;;;7.57;80.36;96044.53;5100041;28;20515;-85
2021/04/21 01:20:27;;;;;;;24.03;17.13;;;;;;;7.55;79.83;96045.06;5098338;28;20509;-86
2021/04/21 01:23:11;;;;;;;22.60;16.27;;;;;;;7.50;80.32;96030.56;5098833;28;20399;-86
2021/04/21 01:25:48;;;;;;;23.53;15.53;;;;;;;7.55;80.64;96040.41;5098513;28;20953;-86
2021/04/21 01:28:20;;;;;;;27.70;17.70;;;;;;;7.54;80.26;96035.59;5097360;28;20380;-85
2021/04/21 01:30:48;;;;;;;21.97;16.07;;;;;;;7.53;80.40;96032.19;5098981;28;20808;-86
2021/04/21 01:33:16;;;;;;;28.23;19.10;;;;;;;7.57;80.60;96033.81;5098857;28;20494;-86
2021/04/21 01:35:44;;;;;;;26.63;16.70;;;;;;;7.57;80.43;96037.22;5098257;28;20442;-85
2021/04/21 01:38:12;;;;;;;24.67;16.83;;;;;;;7.58;80.19;96035.25;5098248;28;20501;-85
2021/04/21 01:40:42;;;;;;;26.53;17.03;;;;;;;7.55;80.01;96035.03;5098924;28;20461;-85
2021/04/21 01:43:12;;;;;;;24.53;15.90;;;;;;;7.56;79.75;96030.41;5097787;28;20436;-85
2021/04/21 01:45:41;;;;;;;26.00;16.83;;;;;;;7.54;79.92;96035.59;5097279;28;20541;-85
2021/04/21 01:48:14;;;;;;;28.27;17.20;;;;;;;7.51;80.76;96036.63;5098175;28;20415;-85
2021/04/21 01:50:40;;;;;;;25.10;18.50;;;;;;;7.47;80.28;96033.56;5098200;28;20399;-84
2021/04/21 01:53:15;;;;;;;25.03;16.40;;;;;;;7.48;80.80;96035.72;5098428;28;20459;-84
2021/04/21 01:59:13;;;;;;;29.17;19.10;;;;;;;7.41;81.00;96028.34;5097909;28;20403;-83
2021/04/21 02:01:45;;;;;;;31.47;19.33;;;;;;;7.38;80.54;96026.72;5089761;28;20437;-86
2021/04/21 02:04:25;;;;;;;22.63;16.53;;;;;;;7.39;80.96;96033.50;5104199;28;20435;-86
2021/04/21 02:06:59;;;;;;;23.63;16.37;;;;;;;7.41;80.78;96036.41;5098503;28;20419;-85
2021/04/21 02:09:59;;;;;;;25.97;16.60;;;;;;;7.38;80.96;96037.44;5097736;28;20403;-86
2021/04/21 02:12:46;;;;;;;30.70;17.93;;;;;;;7.38;81.02;96034.75;5098164;28;20433;-85
2021/04/21 02:15:19;;;;;;;25.53;17.17;;;;;;;7.38;80.89;96042.09;5097501;28;20492;-84
2021/04/21 02:17:53;;;;;;;27.00;17.20;;;;;;;7.39;80.95;96036.19;5097022;28;20430;-85
2021/04/21 02:20:26;;;;;;;27.60;18.00;;;;;;;7.38;80.41;96036.72;5097265;28;20465;-83
2021/04/21 02:22:59;;;;;;;29.87;20.67;;;;;;;7.34;81.14;96034.38;5097610;28;20396;-83
2021/04/21 02:28:56;;;;;;;29.70;18.53;;;;;;;7.32;80.95;96034.19;5097083;28;20375;-85
2021/04/21 02:31:36;;;;;;;29.33;19.20;;;;;;;7.26;81.30;96046.31;5097100;28;20451;-84
2021/04/21 02:34:16;;;;;;;30.43;17.80;;;;;;;7.27;81.23;96043.06;5096673;28;20548;-86
2021/04/21 02:36:46;;;;;;;25.93;17.87;;;;;;;7.26;81.59;96044.34;5097326;28;20485;-85
2021/04/21 02:39:19;;;;;;;28.67;18.20;;;;;;;7.22;81.43;96043.22;5097411;28;20485;-85
2021/04/21 02:41:52;;;;;;;26.67;16.80;;;;;;;7.18;81.47;96038.19;5096707;28;20409;-85
2021/04/21 02:44:30;;;;;;;31.33;19.20;;;;;;;7.12;81.74;96045.66;5097069;28;20477;-85
2021/04/21 02:47:05;;;;;;;32.33;18.67;;;;;;;6.99;82.88;96040.34;5098037;28;20402;-85
2021/04/21 02:53:06;;;;;;;29.93;18.23;;;;;;;6.82;83.54;96030.03;5096569;28;20585;-85
2021/04/21 02:55:42;;;;;;;25.70;17.53;;;;;;;6.78;83.78;96032.31;5096710;28;20475;-85
2021/04/21 02:58:13;;;;;;;29.23;18.47;;;;;;;6.78;83.52;96042.31;5096625;28;20516;-85
2021/04/21 03:00:47;;;;;;;32.50;20.13;;;;;;;6.81;83.99;96031.25;5095811;28;20399;-85
2021/04/21 03:03:21;;;;;;;31.50;20.20;;;;;;;6.84;83.41;96032.16;5096853;28;20441;-85
2021/04/21 03:05:51;;;;;;;34.37;20.57;;;;;;;6.83;83.56;96031.44;5097505;28;20435;-85
2021/04/21 03:08:24;;;;;;;34.30;20.70;;;;;;;6.84;83.57;96026.81;5096277;28;20429;-84
2021/04/21 03:10:55;;;;;;;33.17;20.10;;;;;;;6.83;83.25;96034.13;5096219;28;20547;-86
2021/04/21 03:13:25;;;;;;;35.07;20.63;;;;;;;6.84;83.66;96019.47;5096865;28;20490;-85
2021/04/21 03:15:56;;;;;;;32.07;18.90;;;;;;;6.86;83.74;96032.38;5097640;28;20431;-85
2021/04/21 03:18:26;;;;;;;27.80;18.50;;;;;;;6.84;83.32;96024.84;5113672;28;20425;-85
2021/04/21 03:20:57;;;;;;;34.83;18.73;;;;;;;6.78;83.64;96026.22;5118468;28;20399;-84
2021/04/21 03:23:27;;;;;;;36.97;21.20;;;;;;;6.76;84.32;96028.72;5118273;28;20480;-85
2021/04/21 03:25:56;;;;;;;36.70;22.80;;;;;;;6.73;84.16;96025.13;5105965;28;20464;-84
2021/04/21 03:28:24;;;;;;;33.60;20.23;;;;;;;6.76;84.10;96023.34;5105432;28;20456;-85
2021/04/21 03:34:17;;;;;;;33.87;21.10;;;;;;;6.72;84.59;96017.59;5107164;28;20538;-85
2021/04/21 03:36:43;;;;;;;36.47;20.40;;;;;;;6.70;84.89;96020.06;5096769;28;20423;-85
2021/04/21 03:39:11;;;;;;;31.63;21.40;;;;;;;6.68;84.38;96012.53;5096313;28;20768;-85
2021/04/21 03:41:38;;;;;;;36.90;22.03;;;;;;;6.71;84.59;96016.13;5102834;28;20483;-85
2021/04/21 03:44:06;;;;;;;29.07;20.50;;;;;;;6.71;84.59;96016.13;5105609;28;20462;-85
2021/04/21 03:46:33;;;;;;;32.47;20.33;;;;;;;6.68;84.44;96017.19;5097294;28;20502;-85
2021/04/21 03:49:00;;;;;;;35.07;20.33;;;;;;;6.59;85.55;96018.34;5096623;28;20440;-85
2021/04/21 03:51:27;;;;;;;34.03;20.27;;;;;;;6.55;85.30;96009.22;5097378;28;20415;-86
2021/04/21 03:53:53;;;;;;;33.10;20.60;;;;;;;6.52;85.78;96008.25;5100523;28;20451;-85
2021/04/21 03:56:23;;;;;;;33.97;21.30;;;;;;;6.50;85.98;96016.13;5100989;28;20445;-85
2021/04/21 03:58:52;;;;;;;43.47;21.93;;;;;;;6.44;86.06;96012.84;5099889;28;20399;-86
2021/04/21 04:01:20;;;;;;;32.20;20.30;;;;;;;6.37;86.56;96006.16;5100031;28;20476;-85
2021/04/21 04:03:50;;;;;;;33.97;20.30;;;;;;;6.35;86.57;96014.00;5100714;28;20518;-86
2021/04/21 04:06:20;;;;;;;35.20;21.83;;;;;;;6.34;86.66;96014.50;5100635;28;20411;-86
2021/04/21 04:12:12;;;;;;;35.30;20.63;;;;;;;6.19;87.96;96006.31;5100808;28;20432;-85
2021/04/21 04:14:39;;;;;;;38.10;21.13;;;;;;;6.18;88.34;96010.94;5100320;28;20488;-84
2021/04/21 04:17:07;;;;;;;32.60;20.90;;;;;;;6.17;87.80;96000.78;5101471;28;20418;-86
2021/04/21 04:19:36;;;;;;;30.00;18.40;;;;;;;6.16;87.32;96005.41;5101560;28;20506;-85
2021/04/21 04:22:06;;;;;;;32.53;20.50;;;;;;;6.11;88.27;96008.19;5101122;28;20487;-86
2021/04/21 04:24:43;;;;;;;39.53;22.27;;;;;;;6.08;87.84;96009.22;5101801;28;20442;-86
2021/04/21 04:27:16;;;;;;;32.37;20.27;;;;;;;6.12;88.17;96007.66;5101266;28;20433;-85
2021/04/21 04:29:43;;;;;;;35.40;21.00;;;;;;;6.16;88.47;96012.72;5100786;28;20478;-85
2021/04/21 04:32:13;;;;;;;35.53;22.37;;;;;;;6.18;88.21;96012.91;5101586;28;20482;-86
2021/04/21 04:34:43;;;;;;;41.77;22.27;;;;;;;6.21;88.15;96011.88;5100236;28;20462;-85
2021/04/21 04:37:11;;;;;;;32.97;21.20;;;;;;;6.34;88.41;96023.28;5100071;28;20464;-86
2021/04/21 04:39:38;;;;;;;31.00;20.60;;;;;;;6.51;87.06;96014.88;5100903;28;20514;-86
2021/04/21 04:42:06;;;;;;;38.40;21.93;;;;;;;6.69;86.66;96027.38;5100282;28;20428;-86
2021/04/21 04:44:34;;;;;;;34.60;21.30;;;;;;;6.81;85.15;96019.81;5100342;28;20436;-85
2021/04/21 04:47:04;;;;;;;31.93;20.50;;;;;;;7.05;84.95;96030.19;5100474;28;20836;-85
2021/04/21 04:49:36;;;;;;;27.20;18.13;;;;;;;7.28;84.30;96025.03;5100716;28;20421;-86
2021/04/21 04:52:06;;;;;;;31.37;18.33;;;;;;;7.51;81.95;96031.28;5100058;28;20499;-86
2021/04/21 04:54:33;;;;;;;25.33;17.17;;;;;;;7.74;80.40;96028.72;5100196;28;20526;-86
2021/04/21 04:57:01;;;;;;;25.97;18.23;;;;;;;7.90;79.73;96040.97;5100364;28;20440;-85
2021/04/21 04:59:28;;;;;;;31.40;19.30;;;;;;;8.24;78.82;96043.47;5100774;28;20992;-86
2021/04/21 05:01:58;;;;;;;32.33;18.27;;;;;;;8.62;77.30;96038.94;5099548;28;20438;-86
2021/04/21 05:04:33;;;;;;;33.80;19.20;;;;;;;8.93;75.65;96053.16;5100190;28;20469;-86
2021/04/21 05:07:04;;;;;;;28.90;17.00;;;;;;;9.19;74.26;96042.09;5100797;28;20406;-86
2021/04/21 05:09:33;;;;;;;24.77;17.53;;;;;;;9.45;72.51;96055.19;5101454;28;20516;-87
2021/04/21 05:12:02;;;;;;;29.80;17.40;;;;;;;9.66;72.14;96058.41;5100936;28;20404;-86
2021/04/21 05:14:32;;;;;;;27.37;15.90;;;;;;;9.78;71.37;96055.31;5100043;28;20459;-87
2021/04/21 05:17:34;;;;;;;22.50;15.83;;;;;;;10.05;70.20;96062.47;5100203;28;20436;-87
2021/04/21 05:20:38;;;;;;;30.63;18.97;;;;;;;10.33;68.59;96068.88;5100864;28;20467;-88
2021/04/21 05:26:51;;;;;;;31.03;18.30;;;;;;;10.66;67.47;96071.06;5104934;28;20492;-87
2021/04/21 05:30:00;;;;;;;28.37;16.70;;;;;;;11.08;65.86;96070.47;5102247;28;20448;-86
2021/04/21 05:32:58;;;;;;;30.10;19.63;;;;;;;11.32;65.39;96080.53;5104626;28;20429;-86
2021/04/21 05:36:01;;;;;;;33.30;19.30;;;;;;;11.60;64.66;96080.16;5102787;28;21032;-86
2021/04/21 05:39:23;;;;;;;28.33;18.67;;;;;;;11.86;63.38;96081.56;5103407;28;20800;-87
2021/04/21 05:42:20;;;;;;;30.17;19.63;;;;;;;12.26;62.14;96087.47;5101304;28;20836;-86
2021/04/21 05:45:12;;;;;;;29.67;18.80;;;;;;;12.42;60.74;96092.72;5100556;28;20631;-86
2021/04/21 05:51:38;;;;;;;31.73;21.70;;;;;;;12.66;59.99;96092.59;5098622;28;20438;-87
2021/04/21 05:54:45;;;;;;;28.73;19.17;;;;;;;12.68;60.22;96090.06;5099822;28;20976;-89
2021/04/21 05:57:44;;;;;;;25.20;19.33;;;;;;;13.05;59.30;96098.22;5101682;28;20433;-88
2021/04/21 06:01:00;;;;;;;40.47;20.90;;;;;;;13.33;58.73;96094.97;5101651;28;20466;-87
2021/04/21 06:06:47;;;;;;;32.90;20.90;;;;;;;14.11;56.54;96094.59;5106398;28;20480;-92
2021/04/21 06:12:37;;;;;;;23.40;19.43;;;;;;;14.77;54.34;96098.59;5105575;28;20501;-91
2021/04/21 06:15:11;;;;;;;32.03;21.10;;;;;;;15.18;53.04;96102.06;5104725;28;20486;-92
2021/04/21 06:21:11;;;;;;;;;;;;;;;;;;;;;
2021/04/21 06:27:08;;;;;;;28.97;19.10;;;;;;;15.90;50.66;96122.53;5118924;28;20493;-92
2021/04/21 06:32:59;;;;;;;33.57;20.60;;;;;;;16.57;49.02;96118.66;5106181;28;20433;-91
2021/04/21 06:35:33;;;;;;;30.33;20.87;;;;;;;16.81;47.79;96120.16;5104279;28;20469;-89
2021/04/21 06:38:09;;;;;;;30.50;23.10;;;;;;;16.74;48.10;96118.34;5104902;28;20401;-94
2021/04/21 06:40:38;;;;;;;32.47;22.77;;;;;;;17.01;47.59;96131.59;5106560;28;20432;-92
2021/04/21 06:43:05;;;;;;;28.20;21.00;;;;;;;17.48;46.21;96124.91;5106882;28;20455;-92
2021/04/21 06:45:33;;;;;;;28.60;22.17;;;;;;;17.15;46.89;96135.19;5104410;28;21052;-91
2021/04/21 06:48:02;;;;;;;32.37;24.97;;;;;;;17.08;46.76;96136.81;5101539;28;20452;-88
2021/04/21 06:50:30;;;;;;;31.53;22.10;;;;;;;17.47;46.22;96142.59;5103673;28;20469;-94
2021/04/21 06:53:32;;;;;;;26.50;20.97;;;;;;;18.00;45.09;96137.50;5109599;28;20524;-93
2021/04/21 06:56:02;;;;;;;25.90;21.63;;;;;;;17.60;46.05;96133.13;5109605;28;20521;-92
2021/04/21 06:58:30;;;;;;;30.70;22.47;;;;;;;17.53;46.52;96136.78;5109297;28;20437;-93
2021/04/21 07:01:09;;;;;;;31.57;22.30;;;;;;;17.20;46.84;96138.88;5105154;28;20454;-93
2021/04/21 07:03:48;;;;;;;26.53;21.13;;;;;;;17.11;47.46;96132.91;5103800;28;20451;-90
2021/04/21 07:06:14;;;;;;;27.73;20.40;;;;;;;17.11;48.33;96135.66;5101599;28;20822;-91
2021/04/21 07:08:42;;;;;;;25.33;19.70;;;;;;;17.34;47.93;96128.81;5103752;28;20449;-89
2021/04/21 07:11:10;;;;;;;27.90;20.00;;;;;;;17.53;47.76;96134.75;5103094;28;20501;-92
2021/04/21 07:13:41;;;;;;;28.80;19.43;;;;;;;18.00;46.01;96135.47;5102962;28;20487;-89
2021/04/21 07:16:11;;;;;;;27.33;18.63;;;;;;;18.09;46.12;96139.38;5103148;28;20501;-88
2021/04/21 07:18:39;;;;;;;30.70;20.90;;;;;;;17.95;46.53;96138.59;5099294;28;20532;-87
2021/04/21 07:21:07;;;;;;;27.93;21.97;;;;;;;18.18;45.66;96144.00;5107930;28;20448;-87
2021/04/21 07:23:38;;;;;;;26.50;19.63;;;;;;;18.20;45.93;96146.84;5101679;28;20874;-88
2021/04/21 07:26:09;;;;;;;29.23;21.53;;;;;;;17.94;46.96;96143.31;5101244;28;20432;-90
2021/04/21 07:28:39;;;;;;;22.40;18.50;;;;;;;18.60;45.66;96153.91;5109893;28;20425;-91
2021/04/21 07:31:11;;;;;;;26.60;20.30;;;;;;;18.54;45.59;96153.56;5106569;28;20932;-92
2021/04/21 07:33:46;;;;;;;37.47;22.57;;;;;;;18.95;44.53;96148.28;5104658;28;20473;-89
2021/04/21 07:36:14;;;;;;;34.37;21.50;;;;;;;18.70;45.37;96157.19;5229811;22;20571;-94
2021/04/21 07:38:43;;;;;;;30.47;21.20;;;;;;;18.72;45.29;96154.56;5117788;28;20947;-90
2021/04/21 07:41:32;;;;;;;23.60;15.63;;;;;;;18.87;46.71;96154.03;5124429;28;20482;-93
2021/04/21 07:43:59;;;;;;;24.17;18.10;;;;;;;18.52;46.62;96154.16;5107700;28;20544;-92
2021/04/21 07:46:27;;;;;;;29.07;21.80;;;;;;;18.61;46.36;96152.56;5090060;28;20445;-93
2021/04/21 07:48:55;;;;;;;32.33;23.17;;;;;;;19.00;44.60;96156.13;5088119;28;20433;-95
2021/04/21 07:51:46;;;;;;;26.60;20.77;;;;;;;19.12;43.90;96159.50;5096982;28;20437;-95
2021/04/21 07:54:30;;;;;;;26.67;20.50;;;;;;;19.54;43.23;96163.09;5096729;28;20476;-94
2021/04/21 07:57:09;;;;;;;29.27;21.80;;;;;;;19.57;42.84;96159.13;5095275;28;20759;-96
2021/04/21 07:59:37;;;;;;;25.80;20.23;;;;;;;19.38;42.44;96159.47;5093059;28;20452;-92
2021/04/21 08:02:09;;;;;;;33.60;23.47;;;;;;;19.62;42.21;96163.50;5084418;28;20446;-93
2021/04/21 08:04:48;;;;;;;34.47;23.63;;;;;;;19.66;41.89;96158.94;5082623;28;20538;-92
2021/04/21 08:07:38;;;;;;;28.50;22.27;;;;;;;19.00;43.08;96161.59;5095268;28;20444;-94
2021/04/21 08:10:08;;;;;;;26.73;21.93;;;;;;;19.46;42.69;96170.84;5096081;28;20453;-91
2021/04/21 08:12:37;;;;;;;28.33;22.53;;;;;;;19.28;43.15;96167.84;5094494;28;20456;-90
2021/04/21 08:15:07;;;;;;;25.67;20.73;;;;;;;19.30;43.20;96167.25;5084340;28;20485;-93
2021/04/21 08:17:55;;;;;;;32.07;22.57;;;;;;;19.49;43.43;96164.16;5081175;28;20454;-95
2021/04/21 08:20:27;;;;;;;33.17;21.80;;;;;;;19.45;43.29;96169.44;5093232;28;20446;-94
2021/04/21 08:22:55;;;;;;;30.43;22.83;;;;;;;18.91;44.06;96169.94;5088989;28;20445;-93
2021/04/21 08:25:21;;;;;;;32.00;22.93;;;;;;;19.18;43.96;96164.56;5083610;28;20487;-93
2021/04/21 08:28:26;;;;;;;30.13;22.20;;;;;;;19.38;42.82;96170.41;5095406;28;20436;-92
2021/04/21 08:30:54;;;;;;;37.87;22.53;;;;;;;19.06;43.43;96172.84;5096589;28;20449;-91
2021/04/21 08:33:20;;;;;;;32.83;24.40;;;;;;;18.91;44.10;96172.69;5093718;28;20465;-91
2021/04/21 08:35:47;;;;;;;27.93;22.03;;;;;;;18.53;44.32;96166.53;5086888;28;20469;-91
2021/04/21 08:38:13;;;;;;;28.67;21.93;;;;;;;18.51;44.68;96168.44;5086988;28;20464;-93
2021/04/21 08:40:59;;;;;;;34.77;23.37;;;;;;;17.97;45.91;96166.72;5145108;22;20501;-93
2021/04/21 08:43:28;;;;;;;31.97;22.27;;;;;;;17.92;44.92;96169.78;5128412;28;20459;-91
2021/04/21 08:46:23;;;;;;;;;;;;;;;;;;;;;
2021/04/21 08:48:49;;;;;;;30.33;21.47;;;;;;;17.70;45.60;96168.50;5135914;28;20434;-92
2021/04/21 08:51:21;;;;;;;28.80;22.47;;;;;;;17.35;46.80;96165.69;5141067;28;20443;-92
2021/04/21 08:59:28;;;;;;;29.00;21.40;;;;;;;17.42;46.92;96167.47;5242260;22;20483;-90
2021/04/21 09:01:55;;;;;;;32.10;20.37;;;;;;;17.25;46.86;96165.09;5124474;28;20546;-89
2021/04/21 09:04:22;;;;;;;27.90;20.87;;;;;;;17.28;46.51;96166.63;5123404;28;20512;-93
2021/04/21 09:06:51;;;;;;;25.53;21.30;;;;;;;17.05;48.23;96164.56;5129103;28;20439;-90
2021/04/21 09:09:19;;;;;;;32.83;21.60;;;;;;;17.22;46.91;96163.53;5127116;28;20447;-86
2021/04/21 09:11:46;;;;;;;29.03;20.80;;;;;;;16.96;47.35;96162.63;5127427;28;20439;-90
2021/04/21 09:14:16;;;;;;;28.03;20.07;;;;;;;16.28;47.94;96161.72;5123658;28;21050;-91
2021/04/21 09:16:45;;;;;;;34.13;20.10;;;;;;;16.34;48.11;96162.09;5126973;28;20448;-92
2021/04/21 09:19:16;;;;;;;28.13;19.43;;;;;;;16.27;48.50;96161.00;5133778;28;20446;-94
2021/04/21 09:21:43;;;;;;;25.90;19.20;;;;;;;16.31;49.33;96166.00;5123921;28;20444;-91
2021/04/21 09:24:25;;;;;;;20.40;17.03;;;;;;;16.49;48.09;96156.25;5129951;28;20460;-92
2021/04/21 09:26:56;;;;;;;32.03;20.60;;;;;;;16.28;47.67;96164.44;5125618;28;20435;-92
2021/04/21 09:29:27;;;;;;;22.43;16.80;;;;;;;16.18;46.30;96161.75;5124468;28;20447;-87
2021/04/21 09:32:09;;;;;;;20.97;16.30;;;;;;;16.39;45.66;96147.44;5125103;28;20403;-86
2021/04/21 09:34:39;;;;;;;24.60;17.10;;;;;;;16.45;44.90;96145.09;5127047;28;20483;-91
2021/04/21 09:37:24;;;;;;;22.07;15.43;;;;;;;16.27;44.16;96158.25;5129543;28;20435;-92
2021/04/21 09:39:50;;;;;;;22.10;15.60;;;;;;;16.31;44.03;96160.53;5129759;28;20432;-87
2021/04/21 09:42:26;;;;;;;20.00;14.33;;;;;;;16.35;42.70;96158.09;5126964;28;20450;-91
2021/04/21 09:44:53;;;;;;;22.10;14.70;;;;;;;16.31;43.56;96157.81;5126194;28;20474;-90
2021/04/21 09:47:20;;;;;;;21.13;15.20;;;;;;;16.22;43.06;96148.41;5124979;28;20828;-87
2021/04/21 09:49:54;;;;;;;22.47;16.20;;;;;;;16.30;42.54;96153.66;5119426;28;20447;-87
2021/04/21 09:52:30;;;;;;;23.80;15.93;;;;;;;16.42;42.64;96146.97;5120405;28;20882;-85
2021/04/21 09:54:58;;;;;;;22.63;16.80;;;;;;;16.33;43.27;96155.94;5120865;28;20538;-87
2021/04/21 09:57:31;;;;;;;21.43;16.87;;;;;;;16.34;43.21;96151.19;5120595;28;20448;-85
2021/04/21 09:59:59;;;;;;;20.17;15.73;;;;;;;16.45;43.34;96148.53;5120126;28;20488;-86
2021/04/21 10:02:34;;;;;;;20.50;15.70;;;;;;;16.48;42.86;96143.91;5120980;28;20451;-87
2021/04/21 10:05:25;;;;;;;20.60;16.27;;;;;;;16.46;43.13;96139.06;5121896;28;20975;-87
2021/04/21 10:08:15;;;;;;;25.17;16.50;;;;;;;16.84;42.38;96145.53;5126154;28;20500;-87
2021/04/21 10:10:44;;;;;;;28.40;17.40;;;;;;;16.77;42.54;96138.97;5123758;28;20420;-89
2021/04/21 10:13:16;;;;;;;26.80;17.30;;;;;;;16.93;43.54;96139.28;5121801;28;20439;-87
2021/04/21 10:15:42;;;;;;;22.70;17.80;;;;;;;17.20;43.39;96144.34;5122517;28;20519;-87
2021/04/21 10:18:11;;;;;;;24.20;17.23;;;;;;;17.33;42.42;96141.72;5124059;28;20825;-88
2021/04/21 10:20:39;;;;;;;24.23;16.23;;;;;;;16.85;42.62;96155.13;5127490;28;20427;-91
2021/04/21 10:23:06;;;;;;;20.37;15.50;;;;;;;16.32;43.01;96151.09;5135197;28;20423;-91
2021/04/21 10:25:34;;;;;;;26.10;17.07;;;;;;;16.20;42.79;96137.38;5139357;28;20452;-90
2021/04/21 10:28:00;;;;;;;21.90;15.30;;;;;;;16.67;42.62;96137.63;5130790;28;20435;-93
2021/04/21 10:30:30;;;;;;;17.90;13.70;;;;;;;16.85;41.73;96133.34;5125089;28;20432;-90
2021/04/21 10:33:01;;;;;;;21.93;15.70;;;;;;;17.20;41.69;96125.94;5126326;28;20523;-89
2021/04/21 10:35:28;;;;;;;22.83;16.50;;;;;;;17.52;40.87;96138.78;5122693;28;20503;-88
2021/04/21 10:37:55;;;;;;;18.60;14.93;;;;;;;17.61;40.12;96132.53;5119558;28;20518;-86
2021/04/21 10:40:28;;;;;;;27.23;16.10;;;;;;;17.59;40.01;96135.16;5119441;28;20507;-87
2021/04/21 10:42:58;;;;;;;19.93;14.10;;;;;;;17.35;40.32;96130.25;5119447;28;20460;-85
2021/04/21 10:45:26;;;;;;;19.30;13.37;;;;;;;17.16;39.76;96142.06;5119105;28;20870;-85
2021/04/21 10:47:53;;;;;;;16.13;13.60;;;;;;;17.04;39.32;96130.44;5119767;28;20436;-86
2021/04/21 10:50:35;;;;;;;21.17;13.77;;;;;;;17.03;39.07;96129.00;5120734;28;20431;-85
2021/04/21 10:53:02;;;;;;;15.67;13.07;;;;;;;16.96;39.50;96124.47;5119426;28;20479;-84
2021/04/21 10:55:37;;;;;;;16.27;13.60;;;;;;;16.85;39.46;96116.97;5120186;28;20518;-85
2021/04/21 10:58:08;;;;;;;18.53;15.07;;;;;;;17.16;39.54;96106.63;5119598;28;20479;-84
2021/04/21 11:00:37;;;;;;;16.17;13.47;;;;;;;17.65;38.81;96107.50;5118327;28;20460;-83
2021/04/21 11:03:06;;;;;;;17.73;13.63;;;;;;;17.53;37.72;96104.75;5118160;28;20444;-84
2021/04/21 11:05:42;;;;;;;15.37;11.77;;;;;;;17.65;37.87;96115.69;5118058;28;20483;-85
2021/04/21 11:08:10;;;;;;;16.70;11.83;;;;;;;17.81;37.08;96099.53;5117994;28;20451;-84
2021/04/21 11:10:54;;;;;;;17.03;12.53;;;;;;;17.51;37.79;96107.34;5118293;28;20449;-85
2021/04/21 11:13:39;;;;;;;19.50;12.80;;;;;;;17.67;37.72;96104.88;5116830;28;20455;-84
2021/04/21 11:16:08;;;;;;;16.53;12.80;;;;;;;17.85;37.89;96110.69;5118786;28;20431;-84
2021/04/21 11:18:35;;;;;;;17.63;13.50;;;;;;;17.82;37.76;96106.41;5118487;28;20431;-85
2021/04/21 11:21:06;;;;;;;15.17;12.90;;;;;;;18.00;37.17;96105.44;5118501;28;20950;-86
2021/04/21 11:23:55;;;;;;;18.10;12.90;;;;;;;18.03;37.10;96103.53;5120702;28;20515;-84
2021/04/21 11:26:38;;;;;;;18.20;12.27;;;;;;;18.04;35.96;96096.78;5114193;28;20492;-84
2021/04/21 11:29:07;;;;;;;19.20;13.17;;;;;;;18.10;37.64;96092.38;5119044;28;20426;-85
2021/04/21 11:32:11;;;;;;;16.83;12.13;;;;;;;18.32;37.03;96109.28;5118137;28;20451;-85
2021/04/21 11:34:39;;;;;;;20.00;13.10;;;;;;;18.18;37.07;96098.28;5119012;28;20508;-84
2021/04/21 11:37:08;;;;;;;19.57;13.47;;;;;;;18.20;35.98;96098.38;5122027;28;20424;-84
2021/04/21 11:40:09;;;;;;;17.30;13.60;;;;;;;17.91;36.27;96092.66;5120944;28;20512;-85
2021/04/21 11:42:45;;;;;;;18.50;12.60;;;;;;;17.88;36.49;96090.41;5127549;28;20427;-87
2021/04/21 11:45:21;;;;;;;16.50;12.50;;;;;;;17.82;37.02;96090.75;5117871;28;21039;-87
2021/04/21 11:47:48;;;;;;;19.20;13.60;;;;;;;17.81;37.30;96088.63;5117684;28;20419;-90
2021/04/21 11:50:26;;;;;;;20.77;12.80;;;;;;;17.60;37.43;96094.94;5118187;28;20481;-88
2021/04/21 11:52:56;;;;;;;16.20;12.30;;;;;;;17.64;37.78;96087.69;5117680;28;20451;-87
2021/04/21 11:55:35;;;;;;;17.03;12.90;;;;;;;17.40;37.73;96088.25;5118583;28;20897;-87
2021/04/21 11:58:05;;;;;;;17.83;13.97;;;;;;;17.17;37.99;96080.75;5123551;28;20428;-94
2021/04/21 12:00:36;;;;;;;21.37;14.47;;;;;;;17.17;38.02;96088.22;5131565;28;20481;-94
2021/04/21 12:03:05;;;;;;;13.70;11.03;;;;;;;17.04;37.41;96084.06;5132443;28;20412;-94
2021/04/21 12:05:34;;;;;;;14.47;11.37;;;;;;;17.01;37.70;96079.78;5134166;28;20468;-93
2021/04/21 12:08:06;;;;;;;12.40;9.90;;;;;;;17.10;37.46;96071.50;5130465;28;20439;-96
2021/04/21 12:10:34;;;;;;;14.33;10.93;;;;;;;17.26;37.42;96071.06;5134272;28;20428;-93
2021/04/21 12:13:17;;;;;;;13.73;11.00;;;;;;;17.09;36.96;96067.38;5138303;28;20533;-91
2021/04/21 12:15:53;;;;;;;13.57;10.90;;;;;;;16.95;37.13;96063.78;5136584;28;20555;-91
2021/04/21 12:18:27;;;;;;;15.93;11.60;;;;;;;17.09;36.47;96069.38;5127362;28;20864;-91
2021/04/21 12:20:53;;;;;;;17.40;10.40;;;;;;;17.39;36.33;96065.00;5126852;28;20428;-93
2021/04/21 12:23:27;;;;;;;18.03;12.40;;;;;;;17.53;35.70;96069.28;5129287;28;20571;-90
2021/04/21 12:25:54;;;;;;;18.07;11.60;;;;;;;17.61;35.30;96060.84;5126151;28;20513;-95
2021/04/21 12:28:23;;;;;;;11.67;9.90;;;;;;;17.61;35.40;96063.59;5135758;28;20419;-95
2021/04/21 12:30:57;;;;;;;12.00;9.97;;;;;;;17.56;35.10;96057.19;5132246;28;20518;-95
2021/04/21 12:33:24;;;;;;;12.50;10.60;;;;;;;17.77;34.88;96058.34;5136163;28;20454;-95
2021/04/21 12:35:56;;;;;;;15.60;9.53;;;;;;;17.82;34.85;96060.03;5135079;28;20463;-93
2021/04/21 12:38:28;;;;;;;12.90;8.47;;;;;;;17.77;33.92;96058.34;5124247;28;20436;-92
2021/04/21 12:40:56;;;;;;;13.40;10.53;;;;;;;17.81;34.94;96058.59;5124505;28;20478;-89
2021/04/21 12:43:29;;;;;;;13.97;11.13;;;;;;;17.77;34.62;96064.53;5122009;28;21053;-90